sensor_id;sensor_type;location;lat;lon;timestamp;pressure;altitude;pressure_sealevel;temperature
15544;BMP180;7873;52.230;12.856;2023-08-06T00:00:07;100070.13;;;24.30
15544;BMP180;7873;52.230;12.856;2023-08-06T00:02:34;100062.06;;;24.30
15544;BMP180;7873;52.230;12.856;2023-08-06T00:05:01;100064.75;;;24.30
15544;BMP180;7873;52.230;12.856;2023-08-06T00:07:28;100065.56;;;24.31
15544;BMP180;7873;52.230;12.856;2023-08-06T00:09:57;100067.22;;;24.32
15544;BMP180;7873;52.230;12.856;2023-08-06T00:12:24;100051.09;;;24.32
15544;BMP180;7873;52.230;12.856;2023-08-06T00:14:50;100049.25;;;24.32
15544;BMP180;7873;52.230;12.856;2023-08-06T00:17:18;100046.53;;;24.32
15544;BMP180;7873;52.230;12.856;2023-08-06T00:19:45;100041.34;;;24.31
15544;BMP180;7873;52.230;12.856;2023-08-06T00:22:11;100043.84;;;24.32
15544;BMP180;7873;52.230;12.856;2023-08-06T00:24:38;100032.47;;;24.30
15544;BMP180;7873;52.230;12.856;2023-08-06T00:27:06;100028.94;;;24.30
15544;BMP180;7873;52.230;12.856;2023-08-06T00:29:33;100030.59;;;24.31
15544;BMP180;7873;52.230;12.856;2023-08-06T00:32:00;100024.59;;;24.29
15544;BMP180;7873;52.230;12.856;2023-08-06T00:34:27;100035.16;;;24.30
15544;BMP180;7873;52.230;12.856;2023-08-06T00:36:53;100029.78;;;24.30
15544;BMP180;7873;52.230;12.856;2023-08-06T00:39:20;100028.13;;;24.29
15544;BMP180;7873;52.230;12.856;2023-08-06T00:41:47;100028.13;;;24.29
15544;BMP180;7873;52.230;12.856;2023-08-06T00:44:15;100020.84;;;24.30
15544;BMP180;7873;52.230;12.856;2023-08-06T00:46:41;100020.03;;;24.29
15544;BMP180;7873;52.230;12.856;2023-08-06T00:49:08;100009.47;;;24.28
15544;BMP180;7873;52.230;12.856;2023-08-06T00:51:35;100014.66;;;24.29
15544;BMP180;7873;52.230;12.856;2023-08-06T00:54:02;100007.63;;;24.28
15544;BMP180;7873;52.230;12.856;2023-08-06T00:56:29;100008.44;;;24.29
15544;BMP180;7873;52.230;12.856;2023-08-06T00:58:56;100009.47;;;24.28
15544;BMP180;7873;52.230;12.856;2023-08-06T01:01:24;100005.75;;;24.29
15544;BMP180;7873;52.230;12.856;2023-08-06T01:03:50;100002.25;;;24.28
15544;BMP180;7873;52.230;12.856;2023-08-06T01:06:19;100008.44;;;24.29
15544;BMP180;7873;52.230;12.856;2023-08-06T01:08:56;100004.94;;;24.28
15544;BMP180;7873;52.230;12.856;2023-08-06T01:11:28;100010.31;;;24.28
15544;BMP180;7873;52.230;12.856;2023-08-06T01:13:59;100005.75;;;24.29
15544;BMP180;7873;52.230;12.856;2023-08-06T01:16:30;99999.75;;;24.27
15544;BMP180;7873;52.230;12.856;2023-08-06T01:18:58;99996.88;;;24.28
15544;BMP180;7873;52.230;12.856;2023-08-06T01:21:26;99987.94;;;24.28
15544;BMP180;7873;52.230;12.856;2023-08-06T01:23:52;99991.47;;;24.28
15544;BMP180;7873;52.230;12.856;2023-08-06T01:26:25;99980.91;;;24.27
15544;BMP180;7873;52.230;12.856;2023-08-06T01:28:58;99993.34;;;24.28
15544;BMP180;7873;52.230;12.856;2023-08-06T01:31:28;99983.41;;;24.28
15544;BMP180;7873;52.230;12.856;2023-08-06T01:33:58;99987.94;;;24.28
15544;BMP180;7873;52.230;12.856;2023-08-06T01:36:28;99978.03;;;24.28
15544;BMP180;7873;52.230;12.856;2023-08-06T01:38:54;99974.50;;;24.28
15544;BMP180;7873;52.230;12.856;2023-08-06T01:41:22;99977.19;;;24.28
15544;BMP180;7873;52.230;12.856;2023-08-06T01:43:49;99984.44;;;24.27
15544;BMP180;7873;52.230;12.856;2023-08-06T01:46:16;99979.06;;;24.27
15544;BMP180;7873;52.230;12.856;2023-08-06T01:48:43;99979.88;;;24.28
15544;BMP180;7873;52.230;12.856;2023-08-06T01:51:09;99986.91;;;24.29
15544;BMP180;7873;52.230;12.856;2023-08-06T01:53:37;99982.56;;;24.28
15544;BMP180;7873;52.230;12.856;2023-08-06T01:56:04;99973.69;;;24.27
15544;BMP180;7873;52.230;12.856;2023-08-06T01:58:31;99975.53;;;24.27
15544;BMP180;7873;52.230;12.856;2023-08-06T02:00:57;99975.53;;;24.27
15544;BMP180;7873;52.230;12.856;2023-08-06T02:03:24;99959.38;;;24.27
15544;BMP180;7873;52.230;12.856;2023-08-06T02:05:51;99970.16;;;24.27
15544;BMP180;7873;52.230;12.856;2023-08-06T02:08:17;99962.91;;;24.27
15544;BMP180;7873;52.230;12.856;2023-08-06T02:10:46;99955.66;;;24.28
15544;BMP180;7873;52.230;12.856;2023-08-06T02:13:12;99970.16;;;24.27
15544;BMP180;7873;52.230;12.856;2023-08-06T02:15:42;99964.78;;;24.27
15544;BMP180;7873;52.230;12.856;2023-08-06T02:18:08;99956.69;;;24.27
15544;BMP180;7873;52.230;12.856;2023-08-06T02:20:35;99962.06;;;24.27
15544;BMP180;7873;52.230;12.856;2023-08-06T02:23:02;99962.91;;;24.27
15544;BMP180;7873;52.230;12.856;2023-08-06T02:25:28;99959.38;;;24.27
15544;BMP180;7873;52.230;12.856;2023-08-06T02:27:56;99946.16;;;24.25
15544;BMP180;7873;52.230;12.856;2023-08-06T02:30:23;99958.56;;;24.26
15544;BMP180;7873;52.230;12.856;2023-08-06T02:32:50;99947.16;;;24.24
15544;BMP180;7873;52.230;12.856;2023-08-06T02:35:16;99942.63;;;24.25
15544;BMP180;7873;52.230;12.856;2023-08-06T02:37:43;99942.63;;;24.25
15544;BMP180;7873;52.230;12.856;2023-08-06T02:40:10;99941.78;;;24.24
15544;BMP180;7873;52.230;12.856;2023-08-06T02:42:37;99931.03;;;24.24
15544;BMP180;7873;52.230;12.856;2023-08-06T02:45:06;99937.25;;;24.25
15544;BMP180;7873;52.230;12.856;2023-08-06T02:47:33;99931.84;;;24.25
15544;BMP180;7873;52.230;12.856;2023-08-06T02:50:00;99931.66;;;24.26
15544;BMP180;7873;52.230;12.856;2023-08-06T02:52:26;99918.41;;;24.25
15544;BMP180;7873;52.230;12.856;2023-08-06T02:54:53;99918.41;;;24.25
15544;BMP180;7873;52.230;12.856;2023-08-06T02:57:20;99921.09;;;24.25
15544;BMP180;7873;52.230;12.856;2023-08-06T02:59:46;99920.91;;;24.26
15544;BMP180;7873;52.230;12.856;2023-08-06T03:02:14;99919.03;;;24.27
15544;BMP180;7873;52.230;12.856;2023-08-06T03:04:41;99914.50;;;24.27
15544;BMP180;7873;52.230;12.856;2023-08-06T03:07:07;99911.81;;;24.27
15544;BMP180;7873;52.230;12.856;2023-08-06T03:09:34;99908.28;;;24.27
15544;BMP180;7873;52.230;12.856;2023-08-06T03:12:01;99908.28;;;24.27
15544;BMP180;7873;52.230;12.856;2023-08-06T03:14:27;99910.16;;;24.26
15544;BMP180;7873;52.230;12.856;2023-08-06T03:16:54;99907.47;;;24.26
15544;BMP180;7873;52.230;12.856;2023-08-06T03:19:22;99904.13;;;24.24
15544;BMP180;7873;52.230;12.856;2023-08-06T03:21:49;99894.00;;;24.26
15544;BMP180;7873;52.230;12.856;2023-08-06T03:24:15;99893.34;;;24.24
15544;BMP180;7873;52.230;12.856;2023-08-06T03:26:42;99896.88;;;24.25
15544;BMP180;7873;52.230;12.856;2023-08-06T03:29:09;99899.56;;;24.25
15544;BMP180;7873;52.230;12.856;2023-08-06T03:31:35;99905.81;;;24.25
15544;BMP180;7873;52.230;12.856;2023-08-06T03:34:02;99901.44;;;24.24
15544;BMP180;7873;52.230;12.856;2023-08-06T03:36:30;99896.03;;;24.24
15544;BMP180;7873;52.230;12.856;2023-08-06T03:38:57;99896.03;;;24.24
15544;BMP180;7873;52.230;12.856;2023-08-06T03:41:23;99897.72;;;24.25
15544;BMP180;7873;52.230;12.856;2023-08-06T03:43:50;99891.50;;;24.25
15544;BMP180;7873;52.230;12.856;2023-08-06T03:46:17;99888.81;;;24.25
15544;BMP180;7873;52.230;12.856;2023-08-06T03:48:43;99884.28;;;24.25
15544;BMP180;7873;52.230;12.856;2023-08-06T03:51:10;99889.66;;;24.25
15544;BMP180;7873;52.230;12.856;2023-08-06T03:53:38;99880.56;;;24.26
15544;BMP180;7873;52.230;12.856;2023-08-06T03:56:05;99877.03;;;24.26
15544;BMP180;7873;52.230;12.856;2023-08-06T03:58:31;99873.53;;;24.25
15544;BMP180;7873;52.230;12.856;2023-08-06T04:00:59;99872.47;;;24.26
15544;BMP180;7873;52.230;12.856;2023-08-06T04:03:26;99863.75;;;24.24
15544;BMP180;7873;52.230;12.856;2023-08-06T04:05:53;99872.69;;;24.25
15544;BMP180;7873;52.230;12.856;2023-08-06T04:08:20;99856.53;;;24.25
15544;BMP180;7873;52.230;12.856;2023-08-06T04:10:51;99852.00;;;24.25
15544;BMP180;7873;52.230;12.856;2023-08-06T04:13:18;99845.78;;;24.25
15544;BMP180;7873;52.230;12.856;2023-08-06T04:15:45;99834.16;;;24.24
15544;BMP180;7873;52.230;12.856;2023-08-06T04:18:12;99833.34;;;24.24
15544;BMP180;7873;52.230;12.856;2023-08-06T04:20:42;99827.97;;;24.24
15544;BMP180;7873;52.230;12.856;2023-08-06T04:23:09;99826.94;;;24.25
15544;BMP180;7873;52.230;12.856;2023-08-06T04:25:36;99819.91;;;24.24
15544;BMP180;7873;52.230;12.856;2023-08-06T04:28:04;99812.03;;;24.22
15544;BMP180;7873;52.230;12.856;2023-08-06T04:30:31;99820.94;;;24.23
15544;BMP180;7873;52.230;12.856;2023-08-06T04:32:57;99824.44;;;24.23
15544;BMP180;7873;52.230;12.856;2023-08-06T04:35:24;99818.25;;;24.23
15544;BMP180;7873;52.230;12.856;2023-08-06T04:37:51;99811.22;;;24.22
15544;BMP180;7873;52.230;12.856;2023-08-06T04:40:17;99818.25;;;24.23
15544;BMP180;7873;52.230;12.856;2023-08-06T04:42:44;99814.72;;;24.22
15544;BMP180;7873;52.230;12.856;2023-08-06T04:45:12;99815.56;;;24.23
15544;BMP180;7873;52.230;12.856;2023-08-06T04:47:38;99808.31;;;24.23
15544;BMP180;7873;52.230;12.856;2023-08-06T04:50:06;99804.81;;;24.23
15544;BMP180;7873;52.230;12.856;2023-08-06T04:52:32;99802.13;;;24.23
15544;BMP180;7873;52.230;12.856;2023-08-06T04:54:59;99805.63;;;24.23
15544;BMP180;7873;52.230;12.856;2023-08-06T04:57:26;99799.84;;;24.20
15544;BMP180;7873;52.230;12.856;2023-08-06T04:59:52;99797.16;;;24.20
15544;BMP180;7873;52.230;12.856;2023-08-06T05:02:20;99801.06;;;24.11
15544;BMP180;7873;52.230;12.856;2023-08-06T05:04:47;99793.84;;;24.11
15544;BMP180;7873;52.230;12.856;2023-08-06T05:07:14;99796.09;;;24.14
15544;BMP180;7873;52.230;12.856;2023-08-06T05:09:40;99795.50;;;24.19
15544;BMP180;7873;52.230;12.856;2023-08-06T05:12:07;99787.63;;;24.30
15544;BMP180;7873;52.230;12.856;2023-08-06T05:14:34;99786.38;;;24.39
15544;BMP180;7873;52.230;12.856;2023-08-06T05:17:01;99784.09;;;24.49
15544;BMP180;7873;52.230;12.856;2023-08-06T05:19:31;99780.59;;;24.55
15544;BMP180;7873;52.230;12.856;2023-08-06T05:21:57;99779.34;;;24.58
15544;BMP180;7873;52.230;12.856;2023-08-06T05:24:24;99774.59;;;24.60
15544;BMP180;7873;52.230;12.856;2023-08-06T05:26:51;99782.44;;;24.61
15544;BMP180;7873;52.230;12.856;2023-08-06T05:29:17;99776.03;;;24.62
15544;BMP180;7873;52.230;12.856;2023-08-06T05:31:44;99775.41;;;24.60
15544;BMP180;7873;52.230;12.856;2023-08-06T05:34:11;99776.03;;;24.62
15544;BMP180;7873;52.230;12.856;2023-08-06T05:36:39;99770.63;;;24.62
15544;BMP180;7873;52.230;12.856;2023-08-06T05:39:05;99774.19;;;24.63
15544;BMP180;7873;52.230;12.856;2023-08-06T05:41:32;99774.97;;;24.63
15544;BMP180;7873;52.230;12.856;2023-08-06T05:43:59;99771.69;;;24.61
15544;BMP180;7873;52.230;12.856;2023-08-06T05:46:25;99772.72;;;24.60
15544;BMP180;7873;52.230;12.856;2023-08-06T05:48:52;99777.91;;;24.62
15544;BMP180;7873;52.230;12.856;2023-08-06T05:51:18;99769.00;;;24.61
15544;BMP180;7873;52.230;12.856;2023-08-06T05:53:47;99769.00;;;24.61
15544;BMP180;7873;52.230;12.856;2023-08-06T05:56:15;99770.44;;;24.64
15544;BMP180;7873;52.230;12.856;2023-08-06T05:58:42;99770.81;;;24.67
15544;BMP180;7873;52.230;12.856;2023-08-06T06:01:09;99767.31;;;24.67
15544;BMP180;7873;52.230;12.856;2023-08-06T06:03:35;99774.19;;;24.63
15544;BMP180;7873;52.230;12.856;2023-08-06T06:06:02;99767.75;;;24.64
15544;BMP180;7873;52.230;12.856;2023-08-06T06:08:29;99774.38;;;24.61
15544;BMP180;7873;52.230;12.856;2023-08-06T06:10:57;99770.88;;;24.54
15544;BMP180;7873;52.230;12.856;2023-08-06T06:13:24;99773.09;;;24.44
15544;BMP180;7873;52.230;12.856;2023-08-06T06:15:54;99772.72;;;24.34
15544;BMP180;7873;52.230;12.856;2023-08-06T06:18:20;99771.50;;;24.30
15544;BMP180;7873;52.230;12.856;2023-08-06T06:20:47;99770.88;;;24.28
15544;BMP180;7873;52.230;12.856;2023-08-06T06:23:14;99759.88;;;24.30
15544;BMP180;7873;52.230;12.856;2023-08-06T06:25:42;99762.16;;;24.33
15544;BMP180;7873;52.230;12.856;2023-08-06T06:28:10;99756.16;;;24.37
15544;BMP180;7873;52.230;12.856;2023-08-06T06:30:36;99753.03;;;24.40
15544;BMP180;7873;52.230;12.856;2023-08-06T06:33:03;99756.78;;;24.46
15544;BMP180;7873;52.230;12.856;2023-08-06T06:35:30;99760.28;;;24.46
15544;BMP180;7873;52.230;12.856;2023-08-06T06:37:57;99751.59;;;24.44
15544;BMP180;7873;52.230;12.856;2023-08-06T06:40:23;99754.28;;;24.44
15544;BMP180;7873;52.230;12.856;2023-08-06T06:42:50;99762.16;;;24.46
15544;BMP180;7873;52.230;12.856;2023-08-06T06:45:18;99759.22;;;24.47
15544;BMP180;7873;52.230;12.856;2023-08-06T06:47:45;99765.88;;;24.45
15544;BMP180;7873;52.230;12.856;2023-08-06T06:50:11;99757.59;;;24.46
15544;BMP180;7873;52.230;12.856;2023-08-06T06:52:38;99765.03;;;24.44
15544;BMP180;7873;52.230;12.856;2023-08-06T06:55:05;99761.53;;;24.44
15544;BMP180;7873;52.230;12.856;2023-08-06T06:57:54;99756.34;;;24.42
15544;BMP180;7873;52.230;12.856;2023-08-06T07:00:22;99758.84;;;24.44
15544;BMP180;7873;52.230;12.856;2023-08-06T07:02:49;99759.66;;;24.44
15544;BMP180;7873;52.230;12.856;2023-08-06T07:05:16;99757.38;;;24.48
15544;BMP180;7873;52.230;12.856;2023-08-06T07:07:43;99762.78;;;24.48
15544;BMP180;7873;52.230;12.856;2023-08-06T07:10:09;99759.47;;;24.46
15544;BMP180;7873;52.230;12.856;2023-08-06T07:12:36;99756.34;;;24.42
15544;BMP180;7873;52.230;12.856;2023-08-06T07:15:04;99760.50;;;24.45
15544;BMP180;7873;52.230;12.856;2023-08-06T07:17:32;99763.81;;;24.47
15544;BMP180;7873;52.230;12.856;2023-08-06T07:19:59;99761.72;;;24.49
15544;BMP180;7873;52.230;12.856;2023-08-06T07:22:26;99758.22;;;24.48
15544;BMP180;7873;52.230;12.856;2023-08-06T07:24:53;99756.97;;;24.44
15544;BMP180;7873;52.230;12.856;2023-08-06T07:27:19;99765.47;;;24.41
15544;BMP180;7873;52.230;12.856;2023-08-06T07:29:46;99765.47;;;24.41
15544;BMP180;7873;52.230;12.856;2023-08-06T07:38:59;99748.91;;;24.44
15544;BMP180;7873;52.230;12.856;2023-08-06T07:41:31;99750.97;;;24.42
15544;BMP180;7873;52.230;12.856;2023-08-06T07:43:58;99747.47;;;24.42
15544;BMP180;7873;52.230;12.856;2023-08-06T07:46:25;99757.38;;;24.41
15544;BMP180;7873;52.230;12.856;2023-08-06T07:48:51;99757.38;;;24.41
15544;BMP180;7873;52.230;12.856;2023-08-06T07:51:18;99754.94;;;24.40
15544;BMP180;7873;52.230;12.856;2023-08-06T07:53:44;99752.66;;;24.37
15544;BMP180;7873;52.230;12.856;2023-08-06T07:56:12;99749.97;;;24.37
15544;BMP180;7873;52.230;12.856;2023-08-06T07:58:39;99756.56;;;24.34
15544;BMP180;7873;52.230;12.856;2023-08-06T08:01:06;99747.88;;;24.32
15544;BMP180;7873;52.230;12.856;2023-08-06T08:03:33;99745.41;;;24.31
15544;BMP180;7873;52.230;12.856;2023-08-06T08:05:59;99754.31;;;24.31
15544;BMP180;7873;52.230;12.856;2023-08-06T08:08:26;99747.28;;;24.30
15544;BMP180;7873;52.230;12.856;2023-08-06T08:10:54;99758.84;;;24.31
15544;BMP180;7873;52.230;12.856;2023-08-06T08:13:22;99748.31;;;24.29
15544;BMP180;7873;52.230;12.856;2023-08-06T08:15:49;99751.19;;;24.28
15544;BMP180;7873;52.230;12.856;2023-08-06T08:18:16;99746.66;;;24.28
15544;BMP180;7873;52.230;12.856;2023-08-06T08:20:43;99745.63;;;24.29
15544;BMP180;7873;52.230;12.856;2023-08-06T08:23:10;99748.31;;;24.29
15544;BMP180;7873;52.230;12.856;2023-08-06T08:25:37;99743.97;;;24.28
15544;BMP180;7873;52.230;12.856;2023-08-06T08:28:03;99738.78;;;24.27
15544;BMP180;7873;52.230;12.856;2023-08-06T08:30:31;99739.19;;;24.24
15544;BMP180;7873;52.230;12.856;2023-08-06T08:32:58;99731.94;;;24.24
15544;BMP180;7873;52.230;12.856;2023-08-06T08:35:25;99733.81;;;24.24
15544;BMP180;7873;52.230;12.856;2023-08-06T08:37:52;99733.81;;;24.24
15544;BMP180;7873;52.230;12.856;2023-08-06T08:40:21;99731.13;;;24.24
15544;BMP180;7873;52.230;12.856;2023-08-06T08:42:49;99724.53;;;24.26
15544;BMP180;7873;52.230;12.856;2023-08-06T08:45:20;99722.63;;;24.27
15544;BMP180;7873;52.230;12.856;2023-08-06T08:47:48;99721.19;;;24.24
15544;BMP180;7873;52.230;12.856;2023-08-06T08:50:16;99714.56;;;24.20
15544;BMP180;7873;52.230;12.856;2023-08-06T08:52:45;99715.19;;;24.22
15544;BMP180;7873;52.230;12.856;2023-08-06T08:55:15;99715.00;;;24.24
15544;BMP180;7873;52.230;12.856;2023-08-06T08:57:42;99703.38;;;24.23
15544;BMP180;7873;52.230;12.856;2023-08-06T09:00:09;99701.53;;;24.24
15544;BMP180;7873;52.230;12.856;2023-08-06T09:02:37;99707.97;;;24.23
15544;BMP180;7873;52.230;12.856;2023-08-06T09:05:06;99699.91;;;24.23
15544;BMP180;7873;52.230;12.856;2023-08-06T09:07:35;99705.69;;;24.20
15544;BMP180;7873;52.230;12.856;2023-08-06T09:10:07;99697.00;;;24.18
15544;BMP180;7873;52.230;12.856;2023-08-06T09:12:37;99695.78;;;24.14
15544;BMP180;7873;52.230;12.856;2023-08-06T09:15:04;99695.97;;;24.12
15544;BMP180;7873;52.230;12.856;2023-08-06T09:17:31;99686.88;;;24.13
15544;BMP180;7873;52.230;12.856;2023-08-06T09:19:58;99681.25;;;24.21
15544;BMP180;7873;52.230;12.856;2023-08-06T09:22:33;99680.81;;;24.31
15544;BMP180;7873;52.230;12.856;2023-08-06T09:25:00;99678.38;;;24.29
15544;BMP180;7873;52.230;12.856;2023-08-06T09:27:29;99675.69;;;24.29
15544;BMP180;7873;52.230;12.856;2023-08-06T09:29:55;99670.91;;;24.25
15544;BMP180;7873;52.230;12.856;2023-08-06T09:32:22;99668.84;;;24.33
15544;BMP180;7873;52.230;12.856;2023-08-06T09:34:55;99670.47;;;24.34
15544;BMP180;7873;52.230;12.856;2023-08-06T09:37:22;99666.94;;;24.34
15544;BMP180;7873;52.230;12.856;2023-08-06T09:39:50;99662.84;;;24.31
15544;BMP180;7873;52.230;12.856;2023-08-06T09:42:19;99666.16;;;24.33
15544;BMP180;7873;52.230;12.856;2023-08-06T09:44:45;99665.09;;;24.34
15544;BMP180;7873;52.230;12.856;2023-08-06T09:47:15;99664.25;;;24.34
15544;BMP180;7873;52.230;12.856;2023-08-06T09:49:43;99663.63;;;24.38
15544;BMP180;7873;52.230;12.856;2023-08-06T09:52:12;99661.78;;;24.39
15544;BMP180;7873;52.230;12.856;2023-08-06T09:54:39;99663.88;;;24.30
15544;BMP180;7873;52.230;12.856;2023-08-06T09:57:07;99655.81;;;24.30
15544;BMP180;7873;52.230;12.856;2023-08-06T09:59:35;99652.50;;;24.28
15544;BMP180;7873;52.230;12.856;2023-08-06T10:02:07;99647.13;;;24.22
15544;BMP180;7873;52.230;12.856;2023-08-06T10:04:37;99649.81;;;24.22
15544;BMP180;7873;52.230;12.856;2023-08-06T10:07:04;99646.53;;;24.20
15544;BMP180;7873;52.230;12.856;2023-08-06T10:09:31;99635.97;;;24.12
15544;BMP180;7873;52.230;12.856;2023-08-06T10:11:57;99636.81;;;24.06
15544;BMP180;7873;52.230;12.856;2023-08-06T10:14:28;99637.66;;;24.06
15544;BMP180;7873;52.230;12.856;2023-08-06T10:16:57;99637.66;;;24.06
15544;BMP180;7873;52.230;12.856;2023-08-06T10:19:25;99633.91;;;24.14
15544;BMP180;7873;52.230;12.856;2023-08-06T10:22:12;99631.59;;;24.30
15544;BMP180;7873;52.230;12.856;2023-08-06T10:24:46;99623.88;;;24.40
15544;BMP180;7873;52.230;12.856;2023-08-06T10:27:13;99626.56;;;24.47
15544;BMP180;7873;52.230;12.856;2023-08-06T10:29:41;99619.75;;;24.51
15544;BMP180;7873;52.230;12.856;2023-08-06T10:32:09;99624.09;;;24.52
15544;BMP180;7873;52.230;12.856;2023-08-06T10:34:56;99624.69;;;24.54
15544;BMP180;7873;52.230;12.856;2023-08-06T10:37:24;99618.88;;;24.57
15544;BMP180;7873;52.230;12.856;2023-08-06T10:39:51;99607.06;;;24.58
15544;BMP180;7873;52.230;12.856;2023-08-06T10:42:22;99616.00;;;24.58
15544;BMP180;7873;52.230;12.856;2023-08-06T10:45:12;99611.22;;;24.60
15544;BMP180;7873;52.230;12.856;2023-08-06T10:47:39;99613.09;;;24.60
15544;BMP180;7873;52.230;12.856;2023-08-06T10:50:07;99610.19;;;24.61
15544;BMP180;7873;52.230;12.856;2023-08-06T10:52:34;99603.31;;;24.65
15544;BMP180;7873;52.230;12.856;2023-08-06T10:55:01;99605.38;;;24.70
15544;BMP180;7873;52.230;12.856;2023-08-06T10:57:27;99606.25;;;24.64
15544;BMP180;7873;52.230;12.856;2023-08-06T10:59:54;99599.56;;;24.73
15544;BMP180;7873;52.230;12.856;2023-08-06T11:02:22;99603.47;;;24.77
15544;BMP180;7873;52.230;12.856;2023-08-06T11:04:49;99587.72;;;24.80
15544;BMP180;7873;52.230;12.856;2023-08-06T11:07:15;99587.56;;;24.69
15544;BMP180;7873;52.230;12.856;2023-08-06T11:09:42;99590.03;;;24.70
15544;BMP180;7873;52.230;12.856;2023-08-06T11:12:09;99580.31;;;24.69
15544;BMP180;7873;52.230;12.856;2023-08-06T11:14:36;99589.44;;;24.68
15544;BMP180;7873;52.230;12.856;2023-08-06T11:17:04;99571.88;;;24.66
15544;BMP180;7873;52.230;12.856;2023-08-06T11:19:33;99581.78;;;24.65
15544;BMP180;7873;52.230;12.856;2023-08-06T11:22:00;99576.63;;;24.64
15544;BMP180;7873;52.230;12.856;2023-08-06T11:24:27;99580.38;;;24.63
15544;BMP180;7873;52.230;12.856;2023-08-06T11:26:54;99577.28;;;24.59
15544;BMP180;7873;52.230;12.856;2023-08-06T11:29:21;99575.00;;;24.56
15544;BMP180;7873;52.230;12.856;2023-08-06T11:31:48;99569.22;;;24.53
15544;BMP180;7873;52.230;12.856;2023-08-06T11:34:15;99564.69;;;24.53
15544;BMP180;7873;52.230;12.856;2023-08-06T11:36:43;99562.00;;;24.53
15544;BMP180;7873;52.230;12.856;2023-08-06T11:39:11;99559.31;;;24.53
15544;BMP180;7873;52.230;12.856;2023-08-06T11:41:37;99559.31;;;24.53
15544;BMP180;7873;52.230;12.856;2023-08-06T11:44:05;99559.50;;;24.52
15544;BMP180;7873;52.230;12.856;2023-08-06T11:46:49;99549.78;;;24.51
15544;BMP180;7873;52.230;12.856;2023-08-06T11:49:17;99551.63;;;24.50
15544;BMP180;7873;52.230;12.856;2023-08-06T11:51:48;99545.41;;;24.50
15544;BMP180;7873;52.230;12.856;2023-08-06T11:54:15;99546.25;;;24.50
15544;BMP180;7873;52.230;12.856;2023-08-06T11:56:42;99548.34;;;24.48
15544;BMP180;7873;52.230;12.856;2023-08-06T11:59:09;99542.72;;;24.50
15544;BMP180;7873;52.230;12.856;2023-08-06T12:01:36;99544.59;;;24.49
15544;BMP180;7873;52.230;12.856;2023-08-06T12:04:04;99529.50;;;24.48
15544;BMP180;7873;52.230;12.856;2023-08-06T12:06:41;99541.25;;;24.47
15544;BMP180;7873;52.230;12.856;2023-08-06T12:09:09;99534.47;;;24.45
15544;BMP180;7873;52.230;12.856;2023-08-06T12:11:36;99536.94;;;24.46
15544;BMP180;7873;52.230;12.856;2023-08-06T12:14:03;99535.28;;;24.52
15544;BMP180;7873;52.230;12.856;2023-08-06T12:16:29;99537.34;;;24.56
15544;BMP180;7873;52.230;12.856;2023-08-06T12:18:56;99532.97;;;24.62
15544;BMP180;7873;52.230;12.856;2023-08-06T12:21:23;99536.03;;;24.65
15544;BMP180;7873;52.230;12.856;2023-08-06T12:23:49;99538.28;;;24.68
15544;BMP180;7873;52.230;12.856;2023-08-06T12:26:17;99539.94;;;24.69
15544;BMP180;7873;52.230;12.856;2023-08-06T12:28:45;99544.06;;;24.72
15544;BMP180;7873;52.230;12.856;2023-08-06T12:31:12;99547.59;;;24.72
15544;BMP180;7873;52.230;12.856;2023-08-06T12:33:38;99537.44;;;24.74
15544;BMP180;7873;52.230;12.856;2023-08-06T12:36:05;99539.09;;;24.75
15544;BMP180;7873;52.230;12.856;2023-08-06T12:38:32;99545.28;;;24.76
15544;BMP180;7873;52.230;12.856;2023-08-06T12:40:59;99545.28;;;24.76
15544;BMP180;7873;52.230;12.856;2023-08-06T12:43:27;99549.88;;;24.75
15544;BMP180;7873;52.230;12.856;2023-08-06T12:45:53;99549.91;;;24.69
15544;BMP180;7873;52.230;12.856;2023-08-06T12:48:20;99542.63;;;24.69
15544;BMP180;7873;52.230;12.856;2023-08-06T12:50:47;99551.53;;;24.70
15544;BMP180;7873;52.230;12.856;2023-08-06T12:53:14;99540.13;;;24.74
15544;BMP180;7873;52.230;12.856;2023-08-06T12:55:41;99531.66;;;24.71
15544;BMP180;7873;52.230;12.856;2023-08-06T12:58:08;99536.63;;;24.67
15544;BMP180;7873;52.230;12.856;2023-08-06T13:00:36;99539.72;;;24.71
15544;BMP180;7873;52.230;12.856;2023-08-06T13:03:03;99542.84;;;24.74
15544;BMP180;7873;52.230;12.856;2023-08-06T13:05:30;99542.84;;;24.74
15544;BMP180;7873;52.230;12.856;2023-08-06T13:07:56;99540.97;;;24.68
15544;BMP180;7873;52.230;12.856;2023-08-06T13:10:23;99550.78;;;24.56
15544;BMP180;7873;52.230;12.856;2023-08-06T13:12:50;99557.84;;;24.44
15544;BMP180;7873;52.230;12.856;2023-08-06T13:15:17;99579.44;;;24.31
15544;BMP180;7873;52.230;12.856;2023-08-06T13:17:47;99580.09;;;24.20
15544;BMP180;7873;52.230;12.856;2023-08-06T13:20:14;99562.91;;;24.21
15544;BMP180;7873;52.230;12.856;2023-08-06T13:22:41;99554.81;;;24.28
15544;BMP180;7873;52.230;12.856;2023-08-06T13:25:07;99554.78;;;24.41
15544;BMP180;7873;52.230;12.856;2023-08-06T13:27:34;99556.81;;;24.52
15544;BMP180;7873;52.230;12.856;2023-08-06T13:30:01;99562.97;;;24.59
15544;BMP180;7873;52.230;12.856;2023-08-06T13:32:28;99567.56;;;24.52
15544;BMP180;7873;52.230;12.856;2023-08-06T13:34:56;99563.81;;;24.59
15544;BMP180;7873;52.230;12.856;2023-08-06T13:37:23;99554.28;;;24.57
15544;BMP180;7873;52.230;12.856;2023-08-06T13:39:49;99552.88;;;24.54
15544;BMP180;7873;52.230;12.856;2023-08-06T13:42:16;99551.84;;;24.55
15544;BMP180;7873;52.230;12.856;2023-08-06T13:44:43;99542.72;;;24.56
15544;BMP180;7873;52.230;12.856;2023-08-06T13:47:09;99547.22;;;24.62
15544;BMP180;7873;52.230;12.856;2023-08-06T13:49:36;99543.31;;;24.65
15544;BMP180;7873;52.230;12.856;2023-08-06T13:52:04;99540.38;;;24.66
15544;BMP180;7873;52.230;12.856;2023-08-06T13:54:32;99538.09;;;24.70
15544;BMP180;7873;52.230;12.856;2023-08-06T13:56:58;99534.34;;;24.71
15544;BMP180;7873;52.230;12.856;2023-08-06T13:59:25;99534.78;;;24.68
15544;BMP180;7873;52.230;12.856;2023-08-06T14:01:52;99528.97;;;24.71
15544;BMP180;7873;52.230;12.856;2023-08-06T14:04:19;99539.53;;;24.72
15544;BMP180;7873;52.230;12.856;2023-08-06T14:06:46;99528.53;;;24.74
15544;BMP180;7873;52.230;12.856;2023-08-06T14:09:14;99525.06;;;24.67
15544;BMP180;7873;52.230;12.856;2023-08-06T14:11:44;99522.84;;;24.57
15544;BMP180;7873;52.230;12.856;2023-08-06T14:14:11;99525.13;;;24.47